Time;durP1;ratioP1;P1;durP2;ratioP2;P2;SDS_P1;SDS_P2;PMS_P1;PMS_P2;Temp;Humidity;BMP_temperature;BMP_pressure;BME280_temperature;BME280_humidity;BME280_pressure;Samples;Min_cycle;Max_cycle;Signal;HPM_P1;HPM_P2
2023/01/10 00:01:59;;;;;;;11.18;2.17;;;6.30;99.90;;;;;;5066464;28;20119;-91
2023/01/10 00:04:25;;;;;;;10.60;2.28;;;6.30;99.90;;;;;;5065402;28;20673;-91
2023/01/10 00:06:51;;;;;;;10.50;2.28;;;6.30;99.90;;;;;;5065028;28;20084;-91
2023/01/10 00:09:17;;;;;;;14.70;2.08;;;6.30;99.90;;;;;;5064326;28;20039;-90
2023/01/10 00:14:28;;;;;;;13.35;2.70;;;6.20;99.90;;;;;;5081641;28;20540;-91
2023/01/10 00:16:53;;;;;;;7.53;2.38;;;6.20;99.90;;;;;;5067187;28;20063;-89
2023/01/10 00:19:19;;;;;;;13.23;2.10;;;6.20;99.90;;;;;;5070448;28;20059;-91
2023/01/10 00:21:45;;;;;;;11.68;2.53;;;6.10;99.90;;;;;;5081245;28;20100;-90
2023/01/10 00:24:21;;;;;;;11.02;2.83;;;6.00;99.90;;;;;;5065057;28;20496;-91
2023/01/10 00:26:51;;;;;;;13.50;2.88;;;6.00;99.90;;;;;;5086001;28;20089;-90
2023/01/10 00:29:24;;;;;;;13.45;2.63;;;5.90;99.90;;;;;;5064214;28;20135;-90
2023/01/10 00:31:49;;;;;;;13.23;2.53;;;5.80;99.90;;;;;;5065664;28;20542;-90
2023/01/10 00:34:15;;;;;;;9.40;3.10;;;5.70;99.90;;;;;;5082742;28;20044;-91
2023/01/10 00:36:41;;;;;;;8.20;2.40;;;5.70;99.90;;;;;;5083087;28;20039;-91
2023/01/10 00:39:08;;;;;;;11.80;2.80;;;5.60;99.90;;;;;;5068074;28;20028;-91
2023/01/10 00:44:18;;;;;;;9.52;2.47;;;5.50;99.90;;;;;;5081938;28;20036;-90
2023/01/10 00:46:43;;;;;;;11.98;2.78;;;5.40;99.90;;;;;;5064154;28;20040;-91
2023/01/10 00:49:10;;;;;;;12.77;2.67;;;5.40;99.90;;;;;;5067813;28;20028;-90
2023/01/10 00:51:36;;;;;;;15.35;2.80;;;5.40;99.90;;;;;;5082558;28;20548;-90
2023/01/10 00:54:02;;;;;;;15.65;2.80;;;5.40;99.90;;;;;;5065549;28;20031;-90
2023/01/10 00:56:28;;;;;;;13.35;3.25;;;5.40;99.90;;;;;;5066378;28;20194;-91
2023/01/10 00:58:54;;;;;;;8.40;2.45;;;5.50;99.90;;;;;;5064172;28;20638;-91
2023/01/10 01:01:19;;;;;;;13.32;3.25;;;5.50;99.90;;;;;;5065562;28;20392;-91
2023/01/10 01:03:45;;;;;;;10.80;2.75;;;5.60;99.90;;;;;;5081723;28;20040;-91
2023/01/10 01:06:10;;;;;;;12.73;2.10;;;5.60;99.90;;;;;;5084743;28;20047;-91
2023/01/10 01:08:36;;;;;;;13.90;2.80;;;5.60;99.90;;;;;;5096916;28;20417;-90
2023/01/10 01:11:02;;;;;;;15.88;3.15;;;5.70;99.90;;;;;;5077560;28;20044;-91
2023/01/10 01:13:28;;;;;;;9.65;2.47;;;5.70;99.90;;;;;;5078618;28;20043;-91
2023/01/10 01:15:56;;;;;;;15.35;3.25;;;5.70;99.90;;;;;;5092144;28;20036;-90
2023/01/10 01:18:22;;;;;;;13.57;3.10;;;5.70;99.90;;;;;;5096297;28;20031;-89
2023/01/10 01:20:52;;;;;;;13.55;2.78;;;5.70;99.90;;;;;;5079094;28;20036;-90
2023/01/10 01:23:17;;;;;;;13.48;2.65;;;5.80;99.90;;;;;;5077890;28;20114;-91
2023/01/10 01:25:43;;;;;;;11.93;2.75;;;5.80;99.90;;;;;;5096265;28;20131;-90
2023/01/10 01:28:11;;;;;;;14.32;2.83;;;5.70;99.90;;;;;;5073289;28;20081;-90
2023/01/10 01:30:37;;;;;;;11.98;2.53;;;5.70;99.90;;;;;;5078824;28;20047;-91
2023/01/10 01:33:03;;;;;;;12.68;2.33;;;5.80;99.90;;;;;;5077796;28;20081;-91
2023/01/10 01:35:28;;;;;;;9.70;2.85;;;5.80;99.90;;;;;;5078417;28;20079;-90
2023/01/10 01:37:54;;;;;;;13.80;2.60;;;5.80;99.90;;;;;;5096463;28;20032;-91
2023/01/10 01:40:21;;;;;;;10.80;2.80;;;5.80;99.90;;;;;;5071481;28;20032;-91
2023/01/10 01:42:47;;;;;;;20.10;4.35;;;5.90;99.90;;;;;;5058616;28;20079;-91
2023/01/10 01:45:13;;;;;;;14.55;3.20;;;5.90;99.90;;;;;;5059771;28;20403;-91
2023/01/10 01:48:05;;;;;;;14.02;2.88;;;5.90;99.90;;;;;;5095154;28;20509;-90
2023/01/10 01:51:04;;;;;;;14.23;2.78;;;5.90;99.90;;;;;;5096022;28;20071;-91
2023/01/10 01:53:43;;;;;;;13.80;2.70;;;5.90;99.90;;;;;;5093974;28;20082;-90
2023/01/10 01:56:14;;;;;;;11.60;2.75;;;5.90;99.90;;;;;;5095654;28;20036;-91
2023/01/10 01:58:52;;;;;;;13.60;2.67;;;5.90;99.90;;;;;;5078259;28;20601;-91
2023/01/10 02:01:18;;;;;;;9.88;2.35;;;5.90;99.90;;;;;;5095579;28;20039;-92
2023/01/10 02:03:48;;;;;;;16.35;2.72;;;5.80;99.90;;;;;;5094369;28;20043;-90
2023/01/10 02:06:15;;;;;;;13.07;2.60;;;5.80;99.90;;;;;;5077692;28;20051;-91
2023/01/10 02:08:49;;;;;;;9.27;1.95;;;5.80;99.90;;;;;;5078753;28;20046;-91
2023/01/10 02:11:15;;;;;;;11.70;2.25;;;5.70;99.90;;;;;;5093964;28;20036;-91
2023/01/10 02:13:43;;;;;;;8.90;2.28;;;5.70;99.90;;;;;;5094594;28;20560;-91
2023/01/10 02:16:09;;;;;;;11.40;2.22;;;5.70;99.90;;;;;;5094864;28;20040;-91
2023/01/10 02:18:37;;;;;;;10.48;2.53;;;5.70;99.90;;;;;;5077330;28;20566;-91
2023/01/10 02:21:06;;;;;;;9.55;1.90;;;5.70;99.90;;;;;;5078012;28;20103;-91
2023/01/10 02:24:12;;;;;;;13.88;2.42;;;5.70;99.90;;;;;;5076392;28;20036;-90
2023/01/10 02:26:44;;;;;;;13.32;2.65;;;5.70;99.90;;;;;;5013973;28;20041;-91
2023/01/10 02:29:18;;;;;;;10.18;2.95;;;5.70;99.90;;;;;;5067188;28;20054;-91
2023/01/10 02:32:08;;;;;;;15.57;2.50;;;5.70;99.90;;;;;;5076787;28;20420;-91
2023/01/10 02:35:07;;;;;;;16.55;3.35;;;5.70;99.90;;;;;;5077692;28;20050;-90
2023/01/10 02:37:54;;;;;;;13.18;2.40;;;5.70;99.90;;;;;;5093992;28;20067;-90
2023/01/10 02:40:40;;;;;;;17.27;2.83;;;5.70;99.90;;;;;;5078170;28;20397;-91
2023/01/10 02:43:12;;;;;;;12.20;2.72;;;5.60;99.90;;;;;;5093506;28;20047;-91
2023/01/10 02:45:57;;;;;;;12.07;2.90;;;5.60;99.90;;;;;;5077347;28;20060;-91
2023/01/10 02:48:23;;;;;;;9.65;2.10;;;5.60;99.90;;;;;;5077249;28;20404;-91
2023/01/10 02:51:02;;;;;;;16.15;3.20;;;5.60;99.90;;;;;;5077488;28;20032;-91
2023/01/10 02:53:40;;;;;;;17.63;2.67;;;5.50;99.90;;;;;;5093878;28;20032;-91
2023/01/10 02:56:30;;;;;;;16.33;2.90;;;5.50;99.90;;;;;;5076092;28;20067;-90
2023/01/10 02:59:38;;;;;;;12.25;3.10;;;5.50;99.90;;;;;;5077970;28;20040;-90
2023/01/10 03:02:26;;;;;;;10.05;2.00;;;5.40;99.90;;;;;;5031318;28;20664;-91
2023/01/10 03:05:09;;;;;;;11.88;2.33;;;5.40;99.90;;;;;;5077687;28;20027;-91
2023/01/10 03:08:03;;;;;;;19.92;3.53;;;5.50;99.90;;;;;;5077479;28;20040;-90
2023/01/10 03:10:52;;;;;;;22.23;4.78;;;5.50;99.90;;;;;;5089228;28;20046;-90
2023/01/10 03:13:24;;;;;;;11.65;2.42;;;5.50;99.90;;;;;;5092717;28;20548;-90
2023/01/10 03:15:52;;;;;;;11.63;2.50;;;5.50;99.90;;;;;;5085533;28;20497;-90
2023/01/10 03:18:40;;;;;;;14.13;2.47;;;5.50;99.90;;;;;;5077674;28;20045;-91
2023/01/10 03:21:09;;;;;;;13.77;2.80;;;5.50;99.90;;;;;;5075999;28;20035;-91
2023/01/10 03:23:35;;;;;;;13.32;2.10;;;5.50;99.90;;;;;;5093605;28;20046;-91
2023/01/10 03:26:03;;;;;;;15.05;2.75;;;5.50;99.90;;;;;;5075875;28;20032;-91
2023/01/10 03:28:53;;;;;;;13.35;2.50;;;5.50;99.90;;;;;;5076901;28;20047;-91
2023/01/10 03:31:27;;;;;;;18.67;2.65;;;5.50;99.90;;;;;;5075563;28;20047;-90
2023/01/10 03:33:53;;;;;;;8.02;1.88;;;5.50;99.90;;;;;;5093057;28;20491;-91
2023/01/10 03:36:37;;;;;;;16.85;2.38;;;5.50;99.90;;;;;;5076517;28;20040;-91
2023/01/10 03:39:19;;;;;;;16.65;3.13;;;5.50;99.90;;;;;;5076287;28;20039;-91
2023/01/10 03:42:11;;;;;;;10.05;2.45;;;5.50;99.90;;;;;;5076753;28;20035;-91
2023/01/10 03:44:43;;;;;;;11.00;2.25;;;5.50;99.90;;;;;;5080286;28;20070;-91
2023/01/10 03:47:11;;;;;;;12.32;2.53;;;5.50;99.90;;;;;;5056533;28;20523;-90
2023/01/10 03:49:40;;;;;;;15.63;2.55;;;5.50;99.90;;;;;;5063069;28;20043;-91
2023/01/10 03:52:08;;;;;;;12.07;1.85;;;5.50;99.90;;;;;;5075903;28;20058;-90
2023/01/10 03:54:33;;;;;;;8.88;1.52;;;5.50;99.90;;;;;;5076538;28;20043;-91
2023/01/10 03:56:59;;;;;;;14.40;2.33;;;5.50;99.90;;;;;;5092283;28;20036;-91
2023/01/10 03:59:26;;;;;;;12.48;2.60;;;5.50;99.90;;;;;;5077182;28;20517;-91
2023/01/10 04:01:53;;;;;;;12.40;1.77;;;5.50;99.90;;;;;;5075785;28;20058;-91
2023/01/10 04:04:19;;;;;;;16.05;2.97;;;5.50;99.90;;;;;;5074854;28;20508;-90
2023/01/10 04:06:44;;;;;;;9.75;1.90;;;5.60;99.90;;;;;;5093002;28;20035;-91
2023/01/10 04:09:10;;;;;;;11.63;2.88;;;5.60;99.90;;;;;;5093158;28;20035;-91
2023/01/10 04:11:36;;;;;;;13.30;2.33;;;5.60;99.90;;;;;;5093294;28;20123;-91
2023/01/10 04:14:02;;;;;;;7.72;1.92;;;5.60;99.90;;;;;;5074974;28;20047;-91
2023/01/10 04:16:27;;;;;;;13.63;1.90;;;5.60;99.90;;;;;;5092975;28;20042;-92
2023/01/10 04:18:53;;;;;;;12.63;2.45;;;5.60;99.90;;;;;;5075933;28;20111;-91
2023/01/10 04:21:19;;;;;;;15.70;2.70;;;5.60;99.90;;;;;;5076382;28;20481;-91
2023/01/10 04:23:44;;;;;;;9.93;2.00;;;5.60;99.90;;;;;;5092902;28;20148;-90
2023/01/10 04:26:10;;;;;;;15.00;2.42;;;5.60;99.90;;;;;;5075421;28;20035;-91
2023/01/10 04:28:36;;;;;;;9.80;1.80;;;5.70;99.90;;;;;;5076571;28;20443;-91
2023/01/10 04:31:02;;;;;;;9.52;2.03;;;5.70;99.90;;;;;;5091920;28;20779;-91
2023/01/10 04:33:27;;;;;;;12.10;2.38;;;5.70;99.90;;;;;;5075876;28;20504;-91
2023/01/10 04:35:53;;;;;;;7.88;2.10;;;5.80;99.90;;;;;;5075643;28;20054;-91
2023/01/10 04:38:19;;;;;;;9.77;2.10;;;5.80;99.90;;;;;;5093716;28;20545;-91
2023/01/10 04:40:55;;;;;;;8.10;1.80;;;5.80;99.90;;;;;;5094342;28;20031;-91
2023/01/10 04:43:21;;;;;;;12.45;2.53;;;5.90;99.90;;;;;;5078485;28;20519;-91
2023/01/10 04:45:46;;;;;;;9.93;2.38;;;5.90;99.90;;;;;;5080414;28;20035;-91
2023/01/10 04:48:12;;;;;;;13.50;2.45;;;5.90;99.90;;;;;;5080264;28;20547;-91
2023/01/10 04:50:38;;;;;;;17.95;3.47;;;5.90;99.90;;;;;;5079118;28;20035;-90
2023/01/10 04:53:03;;;;;;;12.40;3.13;;;5.90;99.90;;;;;;5096043;28;20032;-91
2023/01/10 04:55:30;;;;;;;12.30;2.55;;;5.90;99.90;;;;;;5096963;28;20032;-91
2023/01/10 04:57:55;;;;;;;14.15;2.80;;;5.90;99.90;;;;;;5078954;28;20044;-90
2023/01/10 05:00:21;;;;;;;14.43;2.22;;;5.90;99.90;;;;;;5097059;28;20040;-91
2023/01/10 05:02:47;;;;;;;14.63;3.28;;;5.90;99.90;;;;;;5078627;28;20512;-91
2023/01/10 05:05:13;;;;;;;16.15;2.58;;;5.90;99.90;;;;;;5096245;28;20031;-91
2023/01/10 05:07:40;;;;;;;15.38;2.78;;;5.90;99.90;;;;;;5096203;28;20050;-91
2023/01/10 05:10:07;;;;;;;13.20;2.63;;;5.90;99.90;;;;;;5079449;28;20039;-92
2023/01/10 05:12:33;;;;;;;9.88;1.80;;;6.00;99.90;;;;;;5095634;28;20074;-91
2023/01/10 05:14:58;;;;;;;19.15;3.40;;;6.00;99.90;;;;;;5078249;28;20063;-91
2023/01/10 05:17:24;;;;;;;14.43;2.83;;;6.00;99.90;;;;;;5079465;28;20521;-91
2023/01/10 05:19:50;;;;;;;14.70;2.50;;;6.10;99.90;;;;;;5096857;28;20030;-91
2023/01/10 05:22:15;;;;;;;17.92;3.58;;;6.10;99.90;;;;;;5078434;28;20480;-91
2023/01/10 05:24:41;;;;;;;8.35;2.03;;;6.10;99.90;;;;;;5096128;28;20654;-91
2023/01/10 05:27:06;;;;;;;12.68;2.80;;;6.20;99.90;;;;;;5095780;28;20493;-91
2023/01/10 05:29:33;;;;;;;15.50;3.00;;;6.20;99.90;;;;;;5078914;28;20047;-91
2023/01/10 05:31:58;;;;;;;17.83;2.95;;;6.20;99.90;;;;;;5078868;28;20040;-91
2023/01/10 05:34:24;;;;;;;14.10;2.63;;;6.20;99.90;;;;;;5078151;28;20036;-91
2023/01/10 05:36:50;;;;;;;14.32;3.85;;;6.20;99.90;;;;;;5058938;28;20043;-92
2023/01/10 05:39:15;;;;;;;11.30;2.58;;;6.30;99.90;;;;;;5076037;28;20663;-92
2023/01/10 05:41:41;;;;;;;15.27;2.65;;;6.20;99.90;;;;;;5075403;28;20089;-92
2023/01/10 05:44:07;;;;;;;11.30;2.85;;;6.20;99.90;;;;;;5078680;28;20039;-92
2023/01/10 05:46:32;;;;;;;15.05;2.70;;;6.20;99.90;;;;;;5077905;28;20465;-91
2023/01/10 05:48:58;;;;;;;14.48;2.28;;;6.20;99.90;;;;;;5079248;28;20032;-91
2023/01/10 05:51:24;;;;;;;15.30;2.70;;;6.20;99.90;;;;;;5078324;28;20032;-91
2023/01/10 05:53:50;;;;;;;16.27;2.88;;;6.20;99.90;;;;;;5093412;28;20036;-91
2023/01/10 05:56:15;;;;;;;16.10;3.08;;;6.20;99.90;;;;;;5095297;28;20126;-92
2023/01/10 05:58:41;;;;;;;11.73;2.50;;;6.20;99.90;;;;;;5077937;28;20035;-91
2023/01/10 06:01:08;;;;;;;16.38;2.53;;;6.20;99.90;;;;;;5075359;28;20032;-91
2023/01/10 06:03:33;;;;;;;17.30;3.83;;;6.30;99.90;;;;;;5058320;28;20393;-91
2023/01/10 06:05:59;;;;;;;17.70;3.20;;;6.30;99.90;;;;;;5074424;28;20477;-91
2023/01/10 06:08:25;;;;;;;15.13;2.75;;;6.30;99.90;;;;;;5078743;28;20071;-92
2023/01/10 06:10:50;;;;;;;15.65;3.22;;;6.30;99.90;;;;;;5077380;28;20043;-92
2023/01/10 06:13:16;;;;;;;14.93;3.17;;;6.30;99.90;;;;;;5077902;28;20062;-92
2023/01/10 06:15:42;;;;;;;17.23;3.28;;;6.30;99.90;;;;;;5095404;28;20052;-92
2023/01/10 06:18:08;;;;;;;14.85;2.63;;;6.30;99.90;;;;;;5094249;28;20114;-91
2023/01/10 06:20:34;;;;;;;12.00;2.15;;;6.30;99.90;;;;;;5095183;28;20097;-92
2023/01/10 06:23:03;;;;;;;14.50;3.15;;;6.30;99.90;;;;;;5094197;28;20035;-91
2023/01/10 06:25:29;;;;;;;15.23;2.63;;;6.30;99.90;;;;;;5077361;28;20039;-91
2023/01/10 06:27:55;;;;;;;17.00;2.40;;;6.30;99.90;;;;;;5078489;28;20051;-91
2023/01/10 06:30:21;;;;;;;14.07;2.72;;;6.20;99.90;;;;;;5077159;28;20554;-91
2023/01/10 06:32:46;;;;;;;15.10;2.78;;;6.20;99.90;;;;;;5077626;28;20043;-92
2023/01/10 06:35:12;;;;;;;13.10;2.28;;;6.20;99.90;;;;;;5094075;28;20531;-90
2023/01/10 06:37:38;;;;;;;12.38;2.15;;;6.20;99.90;;;;;;5077239;28;20055;-91
2023/01/10 06:40:04;;;;;;;11.55;2.53;;;6.20;99.90;;;;;;5094953;28;20512;-91
2023/01/10 06:42:30;;;;;;;11.95;2.83;;;6.10;99.90;;;;;;5076965;28;20115;-92
2023/01/10 06:44:55;;;;;;;12.02;2.30;;;6.10;99.90;;;;;;5094137;28;20114;-92
2023/01/10 06:47:21;;;;;;;15.80;2.88;;;6.10;99.90;;;;;;5077980;28;20223;-92
2023/01/10 06:49:47;;;;;;;13.93;2.65;;;6.10;99.90;;;;;;5076691;28;20047;-91
2023/01/10 06:52:12;;;;;;;12.88;2.58;;;6.10;99.90;;;;;;5094134;28;20412;-92
2023/01/10 06:54:38;;;;;;;16.13;3.00;;;6.10;99.90;;;;;;5077028;28;20044;-91
2023/01/10 06:57:04;;;;;;;10.57;2.60;;;6.10;99.90;;;;;;5076891;28;20063;-91
2023/01/10 06:59:30;;;;;;;12.95;2.90;;;6.00;99.90;;;;;;5074427;28;20123;-92
2023/01/10 07:01:55;;;;;;;17.08;2.95;;;6.10;99.90;;;;;;5081975;28;20126;-91
2023/01/10 07:04:21;;;;;;;14.13;3.08;;;6.00;99.90;;;;;;5075595;28;20032;-91
2023/01/10 07:06:47;;;;;;;15.85;2.63;;;6.00;99.90;;;;;;5076927;28;20103;-91
2023/01/10 07:09:12;;;;;;;17.85;3.35;;;6.00;99.90;;;;;;5093518;28;20046;-91
2023/01/10 07:11:38;;;;;;;11.50;3.22;;;6.00;99.90;;;;;;5077319;28;20126;-91
2023/01/10 07:14:04;;;;;;;10.70;2.50;;;6.00;99.90;;;;;;5076515;28;20095;-92
2023/01/10 07:16:29;;;;;;;15.50;2.72;;;6.00;99.90;;;;;;5093096;28;20123;-92
2023/01/10 07:18:55;;;;;;;10.18;2.05;;;6.00;99.90;;;;;;5077721;28;20046;-92
2023/01/10 07:21:20;;;;;;;12.40;2.58;;;6.00;99.90;;;;;;5076170;28;20035;-91
2023/01/10 07:23:49;;;;;;;13.77;2.33;;;5.90;99.90;;;;;;5093172;28;20130;-91
2023/01/10 07:26:17;;;;;;;14.02;3.05;;;5.90;99.90;;;;;;5075881;28;20043;-91
2023/01/10 07:28:44;;;;;;;17.50;3.20;;;5.90;99.90;;;;;;5070968;28;20040;-91
2023/01/10 07:31:12;;;;;;;11.82;2.92;;;5.90;99.90;;;;;;5066579;28;20028;-91
2023/01/10 07:33:37;;;;;;;13.75;3.15;;;6.00;99.90;;;;;;5071804;28;20036;-91
2023/01/10 07:36:03;;;;;;;13.73;3.38;;;6.00;99.90;;;;;;5093841;28;20092;-91
2023/01/10 07:38:29;;;;;;;13.15;2.42;;;6.00;99.90;;;;;;5092590;28;20070;-91
2023/01/10 07:40:55;;;;;;;20.08;3.10;;;6.00;99.90;;;;;;5066858;28;20562;-91
2023/01/10 07:43:20;;;;;;;7.15;2.00;;;6.00;99.90;;;;;;5073646;28;20040;-90
2023/01/10 07:45:46;;;;;;;16.08;2.63;;;6.00;99.90;;;;;;5075542;28;20054;-91
2023/01/10 07:48:11;;;;;;;10.93;2.33;;;6.00;99.90;;;;;;5076810;28;20101;-91
2023/01/10 07:50:37;;;;;;;14.20;3.10;;;6.00;99.90;;;;;;5092798;28;20035;-90
2023/01/10 07:53:05;;;;;;;13.50;3.03;;;6.00;99.90;;;;;;5092228;28;20032;-91
2023/01/10 07:55:33;;;;;;;10.25;3.08;;;6.00;99.90;;;;;;5072368;28;20042;-91
2023/01/10 07:57:59;;;;;;;10.50;2.13;;;6.00;99.90;;;;;;5071930;28;20122;-90
2023/01/10 08:00:25;;;;;;;14.57;3.08;;;6.00;99.90;;;;;;5092530;28;20128;-91
2023/01/10 08:02:55;;;;;;;21.30;2.90;;;6.00;99.90;;;;;;5074302;28;20081;-91
2023/01/10 08:05:21;;;;;;;14.20;2.25;;;6.00;99.90;;;;;;5074520;28;20061;-91
2023/01/10 08:07:47;;;;;;;12.82;2.90;;;6.00;99.90;;;;;;5075133;28;20089;-91
2023/01/10 08:10:13;;;;;;;10.82;2.25;;;6.00;99.90;;;;;;5074524;28;20071;-91
2023/01/10 08:12:38;;;;;;;8.52;3.00;;;6.00;99.90;;;;;;5092122;28;20047;-91
2023/01/10 08:15:04;;;;;;;13.95;3.08;;;6.00;99.90;;;;;;5070113;28;20039;-90
2023/01/10 08:17:34;;;;;;;14.30;2.70;;;6.00;99.90;;;;;;5096093;28;20092;-91
2023/01/10 08:19:59;;;;;;;16.83;3.28;;;6.00;99.90;;;;;;5079888;28;20031;-92
2023/01/10 08:22:25;;;;;;;17.15;3.42;;;6.00;99.90;;;;;;5094864;28;20515;-91
2023/01/10 08:24:51;;;;;;;18.88;3.05;;;5.90;99.90;;;;;;5096395;28;20240;-91
2023/01/10 08:27:16;;;;;;;21.33;3.65;;;6.00;99.90;;;;;;5079256;28;20492;-92
2023/01/10 08:29:42;;;;;;;13.18;3.05;;;5.90;99.90;;;;;;5068892;28;20051;-91
2023/01/10 08:32:08;;;;;;;15.10;2.50;;;5.90;99.90;;;;;;5086700;28;20449;-91
2023/01/10 08:34:33;;;;;;;14.00;3.65;;;6.00;99.90;;;;;;5067205;28;20046;-91
2023/01/10 08:36:59;;;;;;;19.48;3.70;;;6.00;99.90;;;;;;5070778;28;20032;-91
2023/01/10 08:39:25;;;;;;;14.85;2.70;;;6.00;99.90;;;;;;5090631;28;20427;-91
2023/01/10 08:41:51;;;;;;;16.85;3.38;;;6.00;99.90;;;;;;5085974;28;20028;-92
2023/01/10 08:44:16;;;;;;;16.35;3.20;;;6.00;99.90;;;;;;5078359;28;20097;-93
2023/01/10 08:46:42;;;;;;;11.60;2.42;;;6.00;99.90;;;;;;5087039;28;20096;-91
2023/01/10 08:49:08;;;;;;;18.88;2.80;;;6.10;99.90;;;;;;5096848;28;20409;-92
2023/01/10 08:51:34;;;;;;;18.25;3.10;;;6.10;99.90;;;;;;5094451;28;20038;-91
2023/01/10 08:54:00;;;;;;;14.50;3.13;;;6.10;99.90;;;;;;5076616;28;20123;-91
2023/01/10 08:56:26;;;;;;;20.25;3.35;;;6.10;99.90;;;;;;5078011;28;20122;-92
2023/01/10 08:58:51;;;;;;;17.85;3.22;;;6.10;99.90;;;;;;5077841;28;20039;-92
2023/01/10 09:01:17;;;;;;;12.63;3.00;;;6.10;99.90;;;;;;5078926;28;20034;-92
2023/01/10 09:03:43;;;;;;;16.48;3.80;;;6.20;99.90;;;;;;5077964;28;20539;-91
2023/01/10 09:06:10;;;;;;;13.27;2.42;;;6.30;99.90;;;;;;5069213;28;20044;-92
2023/01/10 09:08:36;;;;;;;20.02;3.15;;;6.30;99.90;;;;;;5079524;28;20465;-92
2023/01/10 09:11:02;;;;;;;13.32;2.50;;;6.40;99.90;;;;;;5077878;28;20042;-90
2023/01/10 09:13:28;;;;;;;10.60;2.22;;;6.40;99.90;;;;;;5078410;28;20035;-93
2023/01/10 09:15:54;;;;;;;19.13;4.95;;;6.50;99.90;;;;;;5077520;28;20038;-92
2023/01/10 09:18:20;;;;;;;18.23;3.42;;;6.50;99.90;;;;;;5078287;28;20078;-92
2023/01/10 09:21:04;;;;;;;17.20;3.50;;;6.60;99.90;;;;;;5098451;28;20038;-92
2023/01/10 09:23:54;;;;;;;13.13;3.65;;;6.60;99.90;;;;;;5090074;28;20039;-92
2023/01/10 09:26:35;;;;;;;22.48;3.47;;;6.60;99.90;;;;;;5096870;28;20043;-92
2023/01/10 09:29:12;;;;;;;17.27;4.22;;;6.70;99.90;;;;;;5073605;28;20056;-92
2023/01/10 09:31:53;;;;;;;18.27;3.10;;;6.70;99.90;;;;;;5073636;28;20063;-91
2023/01/10 09:34:23;;;;;;;15.88;4.00;;;6.70;99.90;;;;;;5067549;28;20401;-90
2023/01/10 09:36:58;;;;;;;18.00;3.97;;;6.80;99.90;;;;;;5074143;28;20036;-90
2023/01/10 09:39:37;;;;;;;20.25;3.95;;;6.80;99.90;;;;;;5068786;28;20059;-90
2023/01/10 09:42:53;;;;;;;16.10;4.38;;;6.80;99.90;;;;;;5070049;28;20044;-90
2023/01/10 09:46:36;;;;;;;;;;;;;;;;;;;;;
2023/01/10 09:53:16;;;;;;;18.13;4.07;;;6.90;99.90;;;;;;4917045;29;20055;-90
2023/01/10 09:56:24;;;;;;;;;;;;;;;;;;;;;
2023/01/10 09:59:07;;;;;;;16.75;4.63;;;7.00;99.90;;;;;;4885695;29;20048;-90
2023/01/10 10:01:59;;;;;;;19.13;4.68;;;7.00;99.90;;;;;;4879499;29;20084;-90
2023/01/10 10:04:49;;;;;;;18.35;4.95;;;7.10;99.90;;;;;;4888403;29;20072;-89
2023/01/10 10:07:21;;;;;;;21.08;4.45;;;7.10;99.90;;;;;;4879542;29;20573;-89
2023/01/10 10:10:11;;;;;;;23.40;4.95;;;7.10;99.90;;;;;;4879610;29;20067;-90
2023/01/10 10:13:33;;;;;;;;;;;;;;;;;;;;;
2023/01/10 10:16:32;;;;;;;20.55;6.38;;;7.10;99.90;;;;;;4916628;29;20749;-90
2023/01/10 10:19:35;;;;;;;17.13;5.00;;;7.20;99.90;;;;;;4871582;29;20131;-90
2023/01/10 10:22:21;;;;;;;28.88;5.82;;;7.20;99.90;;;;;;4937215;28;20054;-90
2023/01/10 10:25:17;;;;;;;21.50;5.05;;;7.20;99.90;;;;;;5017866;28;20039;-90
2023/01/10 10:28:25;;;;;;;22.33;4.90;;;7.20;99.90;;;;;;5058701;28;20062;-89
2023/01/10 10:31:18;;;;;;;16.40;4.95;;;7.20;99.90;;;;;;5061159;28;20058;-90
2023/01/10 10:34:26;;;;;;;21.50;5.03;;;7.30;99.90;;;;;;5056926;28;20405;-90
2023/01/10 10:37:38;;;;;;;18.92;5.40;;;7.30;99.90;;;;;;5070463;28;20055;-89
2023/01/10 10:40:38;;;;;;;21.67;5.18;;;7.30;99.90;;;;;;5077513;28;20044;-90
2023/01/10 10:43:35;;;;;;;19.40;4.63;;;7.30;99.90;;;;;;5091327;28;20040;-90
2023/01/10 10:46:22;;;;;;;22.33;4.38;;;7.30;99.90;;;;;;5076361;28;20123;-90
2023/01/10 10:49:18;;;;;;;20.80;5.05;;;7.30;99.90;;;;;;5084983;28;20039;-91
2023/01/10 10:52:31;;;;;;;16.90;4.45;;;7.30;99.90;;;;;;5095479;28;20511;-91
2023/01/10 10:55:21;;;;;;;;;;;;;;;;;;;;;
2023/01/10 10:57:54;;;;;;;17.25;4.78;;;7.30;99.90;;;;;;5092787;28;20047;-90
2023/01/10 11:01:01;;;;;;;20.52;6.43;;;7.30;99.90;;;;;;5076689;28;20142;-90
2023/01/10 11:03:38;;;;;;;18.00;4.95;;;7.30;99.90;;;;;;5078290;28;20039;-90
2023/01/10 11:06:47;;;;;;;20.27;4.55;;;7.30;99.90;;;;;;5093466;28;20489;-91
2023/01/10 11:12:44;;;;;;;13.73;3.33;;;7.40;99.90;;;;;;5087000;28;20508;-90
2023/01/10 11:15:51;;;;;;;16.15;4.32;;;7.40;99.90;;;;;;5092852;28;20089;-91
2023/01/10 11:18:56;;;;;;;;;;;;;;;;;;;;;
2023/01/10 11:22:23;;;;;;;19.17;4.32;;;7.40;99.90;;;;;;4998521;28;20076;-91
2023/01/10 11:25:50;;;;;;;11.02;3.05;;;7.40;99.90;;;;;;4978022;28;20089;-90
2023/01/10 11:29:14;;;;;;;16.48;4.38;;;7.40;99.90;;;;;;4951656;29;20043;-90
2023/01/10 11:32:30;;;;;;;14.57;3.80;;;7.40;99.90;;;;;;4920308;29;20043;-91
2023/01/10 11:35:25;;;;;;;16.80;4.30;;;7.40;99.90;;;;;;4895465;29;20044;-91
2023/01/10 11:41:48;;;;;;;16.63;3.53;;;7.40;99.90;;;;;;4950885;29;20122;-90
2023/01/10 11:44:51;;;;;;;15.60;3.70;;;7.40;99.90;;;;;;4914811;29;20043;-91
2023/01/10 11:50:54;;;;;;;20.25;3.40;;;7.40;99.90;;;;;;4890057;29;20486;-92
2023/01/10 11:53:41;;;;;;;14.05;3.88;;;7.40;99.90;;;;;;4877345;29;20053;-90
2023/01/10 11:56:21;;;;;;;20.40;4.20;;;7.40;99.90;;;;;;4886655;29;20056;-91
2023/01/10 11:58:46;;;;;;;15.05;4.75;;;7.40;99.90;;;;;;4912278;29;20096;-91
2023/01/10 12:01:27;;;;;;;26.33;5.13;;;7.40;99.90;;;;;;4884510;29;20094;-91
2023/01/10 12:03:52;;;;;;;18.33;4.93;;;7.40;99.90;;;;;;4927498;29;20137;-90
2023/01/10 12:06:19;;;;;;;19.38;4.03;;;7.40;99.90;;;;;;4962064;28;20047;-91
2023/01/10 12:08:45;;;;;;;20.30;4.07;;;7.40;99.90;;;;;;4933924;28;20058;-90
2023/01/10 12:11:18;;;;;;;16.30;4.03;;;7.30;99.90;;;;;;4953095;28;20043;-90
2023/01/10 12:14:23;;;;;;;20.80;4.25;;;7.30;99.90;;;;;;4953193;28;20532;-90
2023/01/10 12:17:21;;;;;;;14.98;3.55;;;7.40;99.90;;;;;;4994219;28;20498;-91
2023/01/10 12:23:40;;;;;;;18.63;5.53;;;7.30;99.90;;;;;;5012033;28;20038;-91
2023/01/10 12:26:50;;;;;;;21.80;4.20;;;7.30;99.90;;;;;;5017150;28;20482;-91
2023/01/10 12:30:14;;;;;;;;;;;;;;;;;;;;;
2023/01/10 12:33:45;;;;;;;19.95;4.05;;;7.30;99.90;;;;;;5010839;28;20053;-90
2023/01/10 12:36:53;;;;;;;16.25;3.80;;;7.20;99.90;;;;;;4885191;29;20451;-90
2023/01/10 12:39:58;;;;;;;22.80;4.18;;;7.20;99.90;;;;;;4878805;29;20123;-90
2023/01/10 12:46:58;;;;;;;14.55;3.90;;;7.20;99.90;;;;;;4910931;29;20055;-89
2023/01/10 12:50:23;;;;;;;;;;;;;;;;;;;;;
2023/01/10 12:53:29;;;;;;;16.73;4.60;;;7.20;99.90;;;;;;4841276;29;20085;-90
2023/01/10 12:56:06;;;;;;;15.27;3.37;;;7.20;99.90;;;;;;4825753;29;20198;-90
2023/01/10 12:59:14;;;;;;;19.92;4.00;;;7.20;99.90;;;;;;4855840;29;20378;-90
2023/01/10 13:02:28;;;;;;;;;;;;;;;;;;;;;
2023/01/10 13:05:50;;;;;;;17.45;3.05;;;7.20;99.90;;;;;;4859090;29;20159;-90
2023/01/10 13:09:21;;;;;;;;;;;;;;;;;;;;;
2023/01/10 13:13:26;;;;;;;15.60;3.42;;;7.20;99.90;;;;;;4919186;28;20131;-90
2023/01/10 13:15:58;;;;;;;18.17;3.25;;;7.20;99.90;;;;;;4918857;29;20048;-90
2023/01/10 13:19:35;;;;;;;18.52;4.18;;;7.20;99.90;;;;;;4916566;29;20099;-90
2023/01/10 13:23:10;;;;;;;20.67;3.65;;;7.20;99.90;;;;;;4876297;29;20045;-90
2023/01/10 13:26:19;;;;;;;18.73;4.78;;;7.10;99.90;;;;;;4905383;28;20054;-90
2023/01/10 13:29:26;;;;;;;16.98;3.28;;;7.10;99.90;;;;;;4920773;29;20580;-89
2023/01/10 13:32:42;;;;;;;15.20;3.33;;;7.10;99.90;;;;;;4944596;28;20142;-90
2023/01/10 13:35:51;;;;;;;14.07;3.70;;;7.10;99.90;;;;;;4952637;28;20095;-90
2023/01/10 13:38:59;;;;;;;16.20;3.90;;;7.10;99.90;;;;;;4934315;28;20059;-90
2023/01/10 13:45:50;;;;;;;29.00;4.78;;;7.10;99.90;;;;;;5019226;28;20075;-90
2023/01/10 13:48:39;;;;;;;17.02;3.45;;;7.00;99.90;;;;;;4976021;28;20049;-90
2023/01/10 13:52:00;;;;;;;20.40;3.88;;;7.00;99.90;;;;;;4978742;28;20796;-90
2023/01/10 14:04:55;;;;;;;19.52;2.75;;;7.00;99.90;;;;;;5022993;28;20071;-89
2023/01/10 14:08:19;;;;;;;18.20;3.42;;;7.00;99.90;;;;;;4973552;28;20093;-90
2023/01/10 14:11:07;;;;;;;14.48;3.03;;;7.00;99.90;;;;;;4908658;29;20125;-90
2023/01/10 14:13:56;;;;;;;18.75;3.55;;;7.00;99.90;;;;;;4901342;29;20054;-90
2023/01/10 14:16:52;;;;;;;14.82;3.38;;;7.10;99.90;;;;;;4910687;29;20176;-89
2023/01/10 14:20:04;;;;;;;13.68;3.05;;;7.10;99.90;;;;;;4868954;29;20055;-90
2023/01/10 14:22:47;;;;;;;14.95;3.70;;;7.00;99.90;;;;;;4896775;29;20055;-90
2023/01/10 14:25:21;;;;;;;16.35;3.47;;;7.00;99.90;;;;;;4922710;28;20093;-90
2023/01/10 14:31:37;;;;;;;12.90;3.22;;;7.10;99.90;;;;;;4941787;29;20073;-90
2023/01/10 14:34:37;;;;;;;16.48;3.53;;;7.10;99.90;;;;;;4944372;28;20061;-90
2023/01/10 14:37:52;;;;;;;18.08;2.95;;;7.10;99.90;;;;;;4940610;28;20194;-90